createdAt,value
2019-04-16T00:00:04.738Z,60.95
2019-04-16T00:01:04.764Z,61.14
2019-04-16T00:02:04.554Z,61.23
2019-04-16T00:03:04.544Z,61.42
2019-04-16T00:04:04.520Z,61.42
2019-04-16T00:05:04.502Z,61.23
2019-04-16T00:06:04.485Z,61.42
2019-04-16T00:07:04.480Z,61.23
2019-04-16T00:08:09.772Z,61.42
2019-04-16T00:09:04.431Z,61.52
2019-04-16T00:10:04.413Z,61.61
2019-04-16T00:11:04.401Z,61.61
2019-04-16T00:12:04.382Z,61.80
2019-04-16T00:13:04.364Z,61.61
2019-04-16T00:14:04.537Z,61.61
2019-04-16T00:15:04.356Z,62.18
2019-04-16T00:16:04.315Z,62.18
2019-04-16T00:17:04.342Z,61.99
2019-04-16T00:18:04.426Z,62.27
2019-04-16T00:19:06.412Z,62.46
2019-04-16T00:20:06.582Z,62.37
2019-04-16T00:21:06.453Z,62.43
2019-04-16T00:22:04.251Z,62.62
2019-04-16T00:23:04.178Z,62.82
2019-04-16T00:24:04.165Z,62.82
2019-04-16T00:25:04.156Z,62.43
2019-04-16T00:26:04.131Z,63.10
2019-04-16T00:27:04.109Z,63.29
2019-04-16T00:28:04.115Z,63.10
2019-04-16T00:29:04.080Z,63.29
2019-04-16T00:30:05.271Z,63.01
2019-04-16T00:31:04.718Z,63.20
2019-04-16T00:32:08.298Z,63.54
2019-04-16T00:33:03.998Z,63.54
2019-04-16T00:34:04.016Z,63.54
2019-04-16T00:35:03.966Z,63.92
2019-04-16T00:36:03.963Z,64.30
2019-04-16T00:37:03.930Z,64.20
2019-04-16T00:38:03.912Z,64.20
2019-04-16T00:39:03.910Z,64.40
2019-04-16T00:40:03.923Z,64.40
2019-04-16T00:41:03.884Z,64.30
2019-04-16T00:42:03.843Z,64.78
2019-04-16T00:43:03.822Z,64.97
2019-04-16T00:44:03.799Z,64.65
2019-04-16T00:45:03.793Z,64.87
2019-04-16T00:46:03.822Z,65.34
2019-04-16T00:47:03.752Z,65.12
2019-04-16T00:48:04.000Z,65.03
2019-04-16T00:49:03.879Z,65.50
2019-04-16T00:50:03.695Z,65.31
2019-04-16T00:51:03.680Z,65.41
2019-04-16T00:52:06.690Z,65.59
2019-04-16T00:53:07.618Z,66.07
2019-04-16T00:54:03.728Z,65.78
2019-04-16T00:55:03.602Z,65.88
2019-04-16T00:56:03.587Z,65.78
2019-04-16T00:57:03.569Z,65.88
2019-04-16T00:58:03.550Z,66.26
2019-04-16T00:59:03.531Z,66.45
2019-04-16T01:00:03.513Z,66.45
2019-04-16T01:01:03.492Z,66.26
2019-04-16T01:02:03.475Z,66.83
2019-04-16T01:03:03.461Z,66.45
2019-04-16T01:04:03.521Z,66.74
2019-04-16T01:05:03.419Z,66.51
2019-04-16T01:06:07.014Z,66.89
2019-04-16T01:07:03.384Z,66.60
2019-04-16T01:08:03.364Z,66.93
2019-04-16T01:09:03.347Z,66.60
2019-04-16T01:10:03.329Z,66.70
2019-04-16T01:11:03.312Z,66.80
2019-04-16T01:12:03.293Z,66.64
2019-04-16T01:13:03.281Z,66.51
2019-04-16T01:14:03.253Z,66.64
2019-04-16T01:15:03.235Z,66.51
2019-04-16T01:16:04.131Z,66.60
2019-04-16T01:17:05.080Z,66.45
2019-04-16T01:18:04.823Z,66.74
2019-04-16T01:19:03.158Z,67.02
2019-04-16T01:20:03.140Z,66.54
2019-04-16T01:21:03.125Z,66.64
2019-04-16T01:22:03.106Z,66.74
2019-04-16T01:23:03.091Z,67.11
2019-04-16T01:24:03.065Z,67.21
2019-04-16T01:25:03.045Z,67.21
2019-04-16T01:26:03.030Z,67.02
2019-04-16T01:27:03.012Z,67.02
2019-04-16T01:28:02.992Z,67.21
2019-04-16T01:29:03.967Z,66.45
2019-04-16T01:30:06.150Z,66.74
2019-04-16T01:31:06.909Z,66.45
2019-04-16T01:32:02.933Z,66.74
2019-04-16T01:33:02.930Z,66.45
2019-04-16T01:34:02.889Z,67.11
2019-04-16T01:35:02.867Z,66.45
2019-04-16T01:36:02.844Z,67.21
2019-04-16T01:37:02.828Z,66.93
2019-04-16T01:38:02.832Z,67.02
2019-04-16T01:39:15.982Z,67.02
2019-04-16T01:40:02.878Z,67.11
2019-04-16T01:41:02.756Z,67.02
2019-04-16T01:42:02.781Z,67.11
2019-04-16T01:43:02.715Z,67.11
2019-04-16T01:44:02.696Z,66.93
2019-04-16T01:45:02.681Z,67.21
2019-04-16T01:46:02.883Z,67.21
2019-04-16T01:47:04.178Z,67.58
2019-04-16T01:48:06.896Z,67.30
2019-04-16T01:49:02.603Z,67.49
2019-04-16T01:50:02.587Z,67.58
2019-04-16T01:51:02.567Z,67.87
2019-04-16T01:52:02.552Z,67.77
2019-04-16T01:53:02.541Z,67.58
2019-04-16T01:54:02.600Z,67.68
2019-04-16T01:55:02.638Z,67.68
2019-04-16T01:56:02.622Z,68.35
2019-04-16T01:57:02.726Z,68.06
2019-04-16T01:58:03.653Z,68.06
2019-04-16T01:59:05.526Z,68.15
2019-04-16T02:00:06.766Z,68.15
2019-04-16T02:01:02.391Z,68.15
2019-04-16T02:02:02.383Z,68.15
2019-04-16T02:03:02.343Z,68.15
2019-04-16T02:04:02.327Z,68.35
2019-04-16T02:05:02.327Z,68.25
2019-04-16T02:06:02.296Z,67.77
2019-04-16T02:07:02.270Z,67.77
2019-04-16T02:08:02.249Z,67.68
2019-04-16T02:09:03.262Z,68.25
2019-04-16T02:10:06.382Z,68.25
2019-04-16T02:11:02.233Z,68.25
2019-04-16T02:12:02.180Z,67.96
2019-04-16T02:13:02.169Z,67.96
2019-04-16T02:14:02.157Z,68.15
2019-04-16T02:15:02.123Z,67.87
2019-04-16T02:16:02.124Z,67.74
2019-04-16T02:17:02.133Z,67.55
2019-04-16T02:18:02.082Z,67.87
2019-04-16T02:19:02.492Z,68.40
2019-04-16T02:20:05.514Z,68.02
2019-04-16T02:21:02.015Z,68.31
2019-04-16T02:22:02.037Z,68.21
2019-04-16T02:23:01.991Z,68.69
2019-04-16T02:24:01.954Z,68.59
2019-04-16T02:25:02.032Z,68.69
2019-04-16T02:26:02.192Z,68.59
2019-04-16T02:27:02.138Z,68.59
2019-04-16T02:28:01.878Z,68.59
2019-04-16T02:29:01.881Z,68.59
2019-04-16T02:30:04.304Z,68.59
2019-04-16T02:31:01.831Z,68.63
2019-04-16T02:32:01.933Z,68.73
2019-04-16T02:33:01.815Z,68.73
2019-04-16T02:34:01.794Z,68.63
2019-04-16T02:35:01.775Z,67.49
2019-04-16T02:36:01.774Z,67.96
2019-04-16T02:37:03.223Z,68.06
2019-04-16T02:38:01.690Z,67.52
2019-04-16T02:39:02.003Z,67.52
2019-04-16T02:40:01.708Z,66.96
2019-04-16T02:41:02.208Z,67.24
2019-04-16T02:42:01.618Z,66.96
2019-04-16T02:43:06.648Z,66.86
2019-04-16T02:44:01.578Z,66.86
2019-04-16T02:45:02.098Z,66.67
2019-04-16T02:46:01.560Z,66.29
2019-04-16T02:47:06.227Z,66.29
2019-04-16T02:48:01.510Z,65.63
2019-04-16T02:49:01.875Z,66.04
2019-04-16T02:50:01.472Z,65.85
2019-04-16T02:51:07.355Z,65.75
2019-04-16T02:52:01.434Z,65.37
2019-04-16T02:53:01.417Z,65.28
2019-04-16T02:54:01.450Z,65.19
2019-04-16T02:55:07.565Z,64.90
2019-04-16T02:56:01.471Z,64.81
2019-04-16T02:57:01.350Z,64.81
2019-04-16T02:58:02.057Z,64.81
2019-04-16T02:59:09.764Z,64.90
2019-04-16T03:00:01.374Z,64.43
2019-04-16T03:01:01.271Z,64.33
2019-04-16T03:02:01.444Z,64.71
2019-04-16T03:03:01.266Z,64.33
2019-04-16T03:04:01.290Z,64.14
2019-04-16T03:05:01.545Z,64.05
2019-04-16T03:06:01.890Z,63.57
2019-04-16T03:07:03.311Z,63.48
2019-04-16T03:08:01.411Z,63.67
2019-04-16T03:09:01.142Z,63.57
2019-04-16T03:10:02.065Z,63.67
2019-04-16T03:11:01.090Z,63.20
2019-04-16T03:12:01.067Z,63.29
2019-04-16T03:13:01.052Z,63.20
2019-04-16T03:14:01.032Z,63.39
2019-04-16T03:15:01.994Z,63.29
2019-04-16T03:16:02.817Z,62.94
2019-04-16T03:17:00.976Z,62.91
2019-04-16T03:18:00.983Z,62.75
2019-04-16T03:19:00.942Z,62.46
2019-04-16T03:20:00.945Z,62.56
2019-04-16T03:21:00.906Z,62.37
2019-04-16T03:22:02.146Z,62.75
2019-04-16T03:23:05.316Z,62.75
2019-04-16T03:24:00.850Z,62.94
2019-04-16T03:25:00.914Z,62.91
2019-04-16T03:26:00.823Z,62.72
2019-04-16T03:27:00.818Z,62.34
2019-04-16T03:28:00.790Z,62.43
2019-04-16T03:29:00.763Z,62.34
2019-04-16T03:30:03.527Z,62.43
2019-04-16T03:31:00.736Z,61.96
2019-04-16T03:32:00.706Z,62.34
2019-04-16T03:33:05.246Z,62.43
2019-04-16T03:34:00.668Z,61.96
2019-04-16T03:35:00.651Z,61.96
2019-04-16T03:36:00.631Z,61.96
2019-04-16T03:37:01.957Z,61.96
2019-04-16T03:38:01.577Z,62.24
2019-04-16T03:39:00.580Z,61.49
2019-04-16T03:40:14.501Z,61.68
2019-04-16T03:41:00.537Z,61.77
2019-04-16T03:42:00.539Z,61.87
2019-04-16T03:43:04.009Z,61.68
2019-04-16T03:44:03.632Z,61.49
2019-04-16T03:45:00.466Z,61.58
2019-04-16T03:46:00.451Z,61.58
2019-04-16T03:47:00.433Z,61.58
2019-04-16T03:48:00.409Z,61.58
2019-04-16T03:49:00.395Z,61.39
2019-04-16T03:50:00.390Z,61.30
2019-04-16T03:51:03.266Z,61.49
2019-04-16T03:52:00.336Z,61.49
2019-04-16T03:53:00.318Z,61.58
2019-04-16T03:54:00.302Z,61.87
2019-04-16T03:55:00.283Z,61.87
2019-04-16T03:56:00.266Z,61.58
2019-04-16T03:57:02.215Z,61.77
2019-04-16T03:58:05.076Z,61.96
2019-04-16T03:59:00.211Z,61.77
2019-04-16T04:00:00.845Z,61.96
2019-04-16T04:01:00.174Z,61.96
2019-04-16T04:02:00.161Z,62.24
2019-04-16T04:03:00.139Z,61.96
2019-04-16T04:04:00.120Z,62.15
2019-04-16T04:05:01.693Z,61.96
2019-04-16T04:06:00.082Z,61.87
2019-04-16T04:07:00.069Z,61.96
2019-04-16T04:08:00.055Z,61.96
2019-04-16T04:09:00.025Z,61.77
2019-04-16T04:10:00.008Z,62.15
2019-04-16T04:10:59.992Z,61.77
2019-04-16T04:11:59.973Z,62.24
2019-04-16T04:12:59.963Z,61.58
2019-04-16T04:13:59.944Z,61.77
2019-04-16T04:14:59.917Z,61.87
2019-04-16T04:16:01.640Z,61.58
2019-04-16T04:17:05.366Z,61.30
2019-04-16T04:17:59.862Z,61.20
2019-04-16T04:18:59.844Z,61.20
2019-04-16T04:19:59.825Z,61.11
2019-04-16T04:20:59.808Z,61.39
2019-04-16T04:21:59.788Z,60.63
2019-04-16T04:22:59.772Z,61.01
2019-04-16T04:24:00.669Z,60.92
2019-04-16T04:25:00.516Z,61.11
2019-04-16T04:25:59.717Z,60.82
2019-04-16T04:26:59.698Z,60.73
2019-04-16T04:27:59.681Z,60.44
2019-04-16T04:28:59.661Z,60.82
2019-04-16T04:29:59.644Z,60.82
2019-04-16T04:31:00.918Z,60.73
2019-04-16T04:32:03.146Z,60.82
2019-04-16T04:32:59.591Z,60.44
2019-04-16T04:33:59.572Z,60.82
2019-04-16T04:34:59.551Z,61.01
2019-04-16T04:35:59.528Z,60.92
2019-04-16T04:37:00.078Z,61.20
2019-04-16T04:38:00.852Z,60.92
2019-04-16T04:38:59.481Z,60.92
2019-04-16T04:39:59.461Z,61.11
2019-04-16T04:40:59.865Z,61.39
2019-04-16T04:41:59.423Z,61.55
2019-04-16T04:43:00.799Z,62.02
2019-04-16T04:44:03.904Z,61.93
2019-04-16T04:44:59.371Z,61.93
2019-04-16T04:45:59.349Z,62.12
2019-04-16T04:46:59.331Z,62.21
2019-04-16T04:47:59.313Z,62.21
2019-04-16T04:49:00.315Z,62.31
2019-04-16T04:49:59.582Z,62.50
2019-04-16T04:50:59.259Z,62.50
2019-04-16T04:51:59.238Z,62.69
2019-04-16T04:52:59.220Z,62.59
2019-04-16T04:53:59.202Z,63.35
2019-04-16T04:54:59.188Z,62.78
2019-04-16T04:55:59.168Z,62.78
2019-04-16T04:57:00.118Z,63.26
2019-04-16T04:58:02.504Z,63.07
2019-04-16T04:58:59.111Z,63.32
2019-04-16T04:59:59.092Z,62.97
2019-04-16T05:00:59.076Z,63.23
2019-04-16T05:01:59.058Z,63.60
2019-04-16T05:02:59.040Z,63.51
2019-04-16T05:04:01.998Z,63.42
2019-04-16T05:04:58.999Z,63.60
2019-04-16T05:05:58.982Z,63.98
2019-04-16T05:06:58.963Z,63.89
2019-04-16T05:07:59.994Z,64.46
2019-04-16T05:09:00.387Z,64.17
2019-04-16T05:09:58.906Z,64.08
2019-04-16T05:11:02.677Z,64.17
2019-04-16T05:11:58.868Z,64.36
2019-04-16T05:12:58.849Z,64.46
2019-04-16T05:13:58.832Z,64.27
2019-04-16T05:14:58.964Z,64.55
2019-04-16T05:16:01.884Z,64.17
2019-04-16T05:16:58.781Z,63.64
2019-04-16T05:17:58.759Z,63.73
2019-04-16T05:18:58.745Z,63.54
2019-04-16T05:19:58.719Z,63.64
2019-04-16T05:20:58.702Z,63.26
2019-04-16T05:21:58.685Z,63.26
2019-04-16T05:22:58.666Z,63.17
2019-04-16T05:23:58.647Z,62.40
2019-04-16T05:25:01.419Z,62.72
2019-04-16T05:25:58.611Z,61.96
2019-04-16T05:26:58.587Z,61.77
2019-04-16T05:27:58.573Z,61.77
2019-04-16T05:28:58.554Z,61.58
2019-04-16T05:29:58.534Z,61.11
2019-04-16T05:30:58.517Z,61.01
2019-04-16T05:31:58.497Z,61.11
2019-04-16T05:32:58.481Z,60.16
2019-04-16T05:34:02.093Z,60.63
2019-04-16T05:34:58.444Z,60.66
2019-04-16T05:35:59.460Z,60.10
2019-04-16T05:36:58.405Z,59.91
2019-04-16T05:37:58.393Z,60.10
2019-04-16T05:38:58.370Z,60.10
2019-04-16T05:39:58.821Z,59.62
2019-04-16T05:41:12.236Z,59.62
2019-04-16T05:41:58.313Z,59.81
2019-04-16T05:42:58.793Z,59.43
2019-04-16T05:44:00.839Z,59.14
2019-04-16T05:44:58.263Z,59.14
2019-04-16T05:45:58.248Z,58.76
2019-04-16T05:46:58.224Z,58.86
2019-04-16T05:47:58.207Z,59.14
2019-04-16T05:48:58.191Z,58.67
2019-04-16T05:49:58.777Z,58.61
2019-04-16T05:51:00.081Z,58.61
2019-04-16T05:52:02.821Z,58.41
2019-04-16T05:52:58.113Z,58.13
2019-04-16T05:53:58.102Z,58.03
2019-04-16T05:55:01.162Z,58.32
2019-04-16T05:55:58.065Z,58.03
2019-04-16T05:56:58.046Z,58.22
2019-04-16T05:57:58.864Z,58.13
2019-04-16T05:58:59.624Z,58.03
2019-04-16T05:59:57.997Z,57.56
2019-04-16T06:00:57.977Z,57.18
2019-04-16T06:01:57.959Z,57.46
2019-04-16T06:02:57.942Z,57.30
2019-04-16T06:03:57.925Z,57.30
2019-04-16T06:04:57.907Z,56.83
2019-04-16T06:05:59.388Z,57.02
2019-04-16T06:07:02.914Z,57.30
2019-04-16T06:07:57.855Z,56.92
2019-04-16T06:08:57.838Z,56.73
2019-04-16T06:09:57.822Z,56.92
2019-04-16T06:10:57.902Z,56.63
2019-04-16T06:11:57.786Z,57.02
2019-04-16T06:12:57.772Z,56.63
2019-04-16T06:13:57.752Z,56.54
2019-04-16T06:14:57.733Z,56.35
2019-04-16T06:15:57.717Z,56.67
2019-04-16T06:16:57.704Z,56.76
2019-04-16T06:17:57.688Z,56.29
2019-04-16T06:18:57.668Z,56.19
2019-04-16T06:19:57.651Z,56.19
2019-04-16T06:20:57.636Z,56.00
2019-04-16T06:21:57.617Z,55.90
2019-04-16T06:23:00.592Z,56.10
2019-04-16T06:23:57.604Z,55.81
2019-04-16T06:24:57.566Z,55.81
2019-04-16T06:25:57.549Z,55.62
2019-04-16T06:26:57.533Z,55.62
2019-04-16T06:27:57.519Z,55.43
2019-04-16T06:28:59.948Z,55.15
2019-04-16T06:30:00.999Z,54.96
2019-04-16T06:30:57.465Z,55.17
2019-04-16T06:31:57.446Z,54.89
2019-04-16T06:32:57.432Z,54.98
2019-04-16T06:33:57.414Z,54.41
2019-04-16T06:34:57.418Z,54.22
2019-04-16T06:35:57.387Z,54.13
2019-04-16T06:36:57.366Z,54.22
2019-04-16T06:37:57.351Z,53.46
2019-04-16T06:38:57.809Z,53.46
2019-04-16T06:40:00.645Z,53.46
2019-04-16T06:40:57.302Z,53.27
2019-04-16T06:41:57.284Z,53.01
2019-04-16T06:42:57.269Z,53.01
2019-04-16T06:43:59.418Z,53.01
2019-04-16T06:44:57.236Z,53.30
2019-04-16T06:45:57.221Z,53.30
2019-04-16T06:46:57.203Z,53.30
2019-04-16T06:47:57.290Z,53.01
2019-04-16T06:48:57.171Z,53.30
2019-04-16T06:49:57.159Z,53.01
2019-04-16T06:50:57.141Z,52.63
2019-04-16T06:51:59.613Z,53.01
2019-04-16T06:52:57.111Z,52.92
2019-04-16T06:53:57.562Z,52.56
2019-04-16T06:54:57.080Z,52.63
2019-04-16T06:55:57.065Z,52.66
2019-04-16T06:56:57.045Z,52.37
2019-04-16T06:57:57.042Z,52.28
2019-04-16T06:58:57.501Z,52.56
2019-04-16T06:59:59.542Z,52.09
2019-04-16T07:00:56.983Z,51.70
2019-04-16T07:01:56.968Z,51.80
2019-04-16T07:03:02.660Z,51.61
2019-04-16T07:03:59.583Z,51.70
2019-04-16T07:04:58.300Z,51.70
2019-04-16T07:05:56.902Z,51.92
2019-04-16T07:06:56.891Z,51.54
2019-04-16T07:07:56.875Z,51.73
2019-04-16T07:08:56.859Z,51.54
2019-04-16T07:09:57.650Z,50.78
2019-04-16T07:10:56.831Z,50.78
2019-04-16T07:11:56.814Z,50.49
2019-04-16T07:12:56.827Z,50.78
2019-04-16T07:13:56.783Z,50.59
2019-04-16T07:14:56.771Z,50.40
2019-04-16T07:15:57.763Z,50.97
2019-04-16T07:16:59.768Z,50.30
2019-04-16T07:17:56.727Z,50.80
2019-04-16T07:18:56.712Z,50.99
2019-04-16T07:19:56.698Z,50.42
2019-04-16T07:20:56.682Z,49.95
2019-04-16T07:21:56.667Z,50.04
2019-04-16T07:22:56.655Z,50.04
2019-04-16T07:23:58.353Z,49.97
2019-04-16T07:24:56.727Z,49.97
2019-04-16T07:25:56.659Z,50.26
2019-04-16T07:26:57.113Z,49.78
2019-04-16T07:27:58.406Z,49.87
2019-04-16T07:28:59.014Z,49.68
2019-04-16T07:29:56.636Z,49.49
2019-04-16T07:30:56.537Z,49.23
2019-04-16T07:31:56.522Z,49.23
2019-04-16T07:32:56.511Z,48.75
2019-04-16T07:33:56.526Z,47.99
2019-04-16T07:34:56.483Z,48.08
2019-04-16T07:35:56.471Z,47.89
2019-04-16T07:37:00.255Z,48.08
2019-04-16T07:37:56.442Z,47.99
2019-04-16T07:38:56.441Z,48.08
2019-04-16T07:39:56.414Z,47.82
2019-04-16T07:40:56.400Z,48.02
2019-04-16T07:42:08.634Z,47.82
2019-04-16T07:42:58.865Z,47.06
2019-04-16T07:43:56.695Z,47.37
2019-04-16T07:44:56.347Z,46.89
2019-04-16T07:45:56.334Z,46.51
2019-04-16T07:46:56.361Z,46.51
2019-04-16T07:47:56.308Z,46.22
2019-04-16T07:48:56.301Z,46.53
2019-04-16T07:50:00.007Z,46.44
2019-04-16T07:50:56.534Z,46.06
2019-04-16T07:51:56.263Z,46.25
2019-04-16T07:52:56.519Z,45.29
2019-04-16T07:53:56.232Z,45.48
2019-04-16T07:54:56.225Z,45.67
2019-04-16T07:55:56.212Z,45.58
2019-04-16T07:56:56.193Z,45.58
2019-04-16T07:57:56.179Z,45.58
2019-04-16T07:59:00.172Z,45.20
2019-04-16T07:59:56.153Z,45.20
2019-04-16T08:00:56.142Z,44.81
2019-04-16T08:01:56.124Z,44.60
2019-04-16T08:02:56.114Z,44.98
2019-04-16T08:03:56.886Z,45.08
2019-04-16T08:04:56.091Z,45.27
2019-04-16T08:05:56.075Z,45.17
2019-04-16T08:06:56.063Z,45.56
2019-04-16T08:07:56.306Z,45.48
2019-04-16T08:08:57.073Z,45.48
2019-04-16T08:10:01.060Z,45.58
2019-04-16T08:10:56.089Z,45.20
2019-04-16T08:11:56.000Z,44.55
2019-04-16T08:12:56.961Z,44.26
2019-04-16T08:13:55.971Z,44.26
2019-04-16T08:14:55.959Z,43.98
2019-04-16T08:15:57.244Z,44.48
2019-04-16T08:16:55.938Z,44.09
2019-04-16T08:17:55.923Z,43.63
2019-04-16T08:18:55.908Z,43.73
2019-04-16T08:19:56.105Z,43.56
2019-04-16T08:21:01.920Z,43.37
2019-04-16T08:21:55.887Z,43.27
2019-04-16T08:22:55.860Z,43.01
2019-04-16T08:23:55.849Z,42.63
2019-04-16T08:24:59.750Z,42.72
2019-04-16T08:26:02.672Z,42.05
2019-04-16T08:26:55.813Z,42.07
2019-04-16T08:27:55.974Z,42.27
2019-04-16T08:28:55.818Z,42.17
2019-04-16T08:29:55.782Z,41.80
2019-04-16T08:30:55.771Z,41.52
2019-04-16T08:31:55.774Z,41.04
2019-04-16T08:32:55.854Z,41.04
2019-04-16T08:33:55.763Z,41.13
2019-04-16T08:34:55.727Z,41.04
2019-04-16T08:35:55.717Z,40.87
2019-04-16T08:36:55.735Z,40.87
2019-04-16T08:37:58.166Z,40.87
2019-04-16T08:38:55.688Z,40.60
2019-04-16T08:39:55.681Z,40.23
2019-04-16T08:40:55.667Z,40.23
2019-04-16T08:41:55.657Z,39.95
2019-04-16T08:42:57.251Z,39.78
2019-04-16T08:43:55.643Z,39.39
2019-04-16T08:44:55.633Z,39.70
2019-04-16T08:45:55.623Z,39.31
2019-04-16T08:46:58.432Z,38.93
2019-04-16T08:47:55.610Z,38.74
2019-04-16T08:48:55.595Z,38.66
2019-04-16T08:49:55.590Z,38.47
2019-04-16T08:50:58.477Z,38.47
2019-04-16T08:51:55.572Z,38.47
2019-04-16T08:52:55.564Z,38.01
2019-04-16T08:53:55.556Z,37.43
2019-04-16T08:54:55.544Z,37.24
2019-04-16T08:55:55.537Z,37.02
2019-04-16T08:56:55.563Z,36.66
2019-04-16T08:57:55.521Z,36.56
2019-04-16T08:58:58.604Z,36.83
2019-04-16T08:59:55.543Z,36.16
2019-04-16T09:00:55.504Z,36.16
2019-04-16T09:01:55.486Z,36.37
2019-04-16T09:02:58.649Z,36.27
2019-04-16T09:03:55.479Z,36.27
2019-04-16T09:04:55.463Z,36.00
2019-04-16T09:05:55.455Z,35.81
2019-04-16T09:07:09.685Z,35.52
2019-04-16T09:07:55.438Z,35.54
2019-04-16T09:08:55.431Z,34.77
2019-04-16T09:09:57.935Z,34.96
2019-04-16T09:10:55.416Z,34.96
2019-04-16T09:11:55.405Z,34.77
2019-04-16T09:13:03.290Z,35.08
2019-04-16T09:13:55.390Z,35.08
2019-04-16T09:14:56.545Z,34.78
2019-04-16T09:15:55.375Z,34.42
2019-04-16T09:16:55.368Z,34.13
2019-04-16T09:17:55.399Z,34.24
2019-04-16T09:18:55.355Z,33.18
2019-04-16T09:19:55.386Z,33.18
2019-04-16T09:20:55.772Z,33.20
2019-04-16T09:21:55.333Z,32.81
2019-04-16T09:22:58.324Z,32.81
2019-04-16T09:23:57.153Z,32.64
2019-04-16T09:24:55.312Z,32.82
2019-04-16T09:25:55.308Z,32.26
2019-04-16T09:26:55.742Z,32.17
2019-04-16T09:27:55.295Z,31.98
2019-04-16T09:28:55.289Z,31.98
2019-04-16T09:29:55.277Z,31.78
2019-04-16T09:30:55.278Z,31.49
2019-04-16T09:31:56.355Z,31.10
2019-04-16T09:33:00.361Z,31.02
2019-04-16T09:33:57.327Z,31.01
2019-04-16T09:35:07.977Z,31.20
2019-04-16T09:35:55.245Z,31.20
2019-04-16T09:36:55.233Z,31.41
2019-04-16T09:37:55.235Z,31.70
2019-04-16T09:38:55.224Z,31.31
2019-04-16T09:39:55.216Z,31.04
2019-04-16T09:40:55.213Z,30.65
2019-04-16T09:41:55.202Z,30.55
2019-04-16T09:42:55.200Z,30.36
2019-04-16T09:43:57.252Z,30.27
2019-04-16T09:44:55.188Z,30.17
2019-04-16T09:46:03.779Z,30.17
2019-04-16T09:46:59.423Z,30.36
2019-04-16T09:47:55.169Z,30.27
2019-04-16T09:48:55.162Z,30.07
2019-04-16T09:49:55.155Z,29.96
2019-04-16T09:50:55.153Z,29.96
2019-04-16T09:51:55.144Z,29.96
2019-04-16T09:52:56.204Z,30.15
2019-04-16T09:53:55.131Z,30.24
2019-04-16T09:54:55.126Z,30.51
2019-04-16T09:55:55.118Z,30.61
2019-04-16T09:56:56.779Z,30.90
2019-04-16T09:57:55.106Z,31.07
2019-04-16T09:58:55.101Z,31.18
2019-04-16T09:59:55.094Z,31.18
2019-04-16T10:00:55.109Z,30.90
2019-04-16T10:01:55.080Z,30.61
2019-04-16T10:02:55.343Z,30.59
2019-04-16T10:03:55.095Z,30.69
2019-04-16T10:04:55.061Z,30.59
2019-04-16T10:05:55.055Z,30.88
2019-04-16T10:06:55.047Z,30.69
2019-04-16T10:07:56.962Z,30.79
2019-04-16T10:08:56.675Z,30.79
2019-04-16T10:09:55.330Z,30.59
2019-04-16T10:10:58.194Z,30.69
2019-04-16T10:11:57.178Z,30.69
2019-04-16T10:12:55.014Z,30.40
2019-04-16T10:13:54.999Z,30.38
2019-04-16T10:14:55.002Z,30.69
2019-04-16T10:15:55.783Z,30.49
2019-04-16T10:16:54.981Z,30.49
2019-04-16T10:17:54.981Z,30.11
2019-04-16T10:18:54.972Z,30.03
2019-04-16T10:19:54.979Z,30.04
2019-04-16T10:20:54.964Z,29.94
2019-04-16T10:21:54.965Z,29.67
2019-04-16T10:22:54.938Z,29.28
2019-04-16T10:23:54.931Z,28.80
2019-04-16T10:24:54.945Z,28.98
2019-04-16T10:25:54.920Z,28.78
2019-04-16T10:26:56.941Z,29.45
2019-04-16T10:27:54.911Z,29.64
2019-04-16T10:28:54.915Z,29.64
2019-04-16T10:29:54.904Z,29.75
2019-04-16T10:30:54.889Z,29.75
2019-04-16T10:31:54.901Z,29.47
2019-04-16T10:32:54.954Z,29.01
2019-04-16T10:33:54.891Z,28.83
2019-04-16T10:34:54.888Z,28.85
2019-04-16T10:35:57.358Z,28.17
2019-04-16T10:36:54.854Z,27.70
2019-04-16T10:37:54.847Z,27.60
2019-04-16T10:38:54.843Z,27.61
2019-04-16T10:39:54.873Z,27.13
2019-04-16T10:40:54.921Z,26.93
2019-04-16T10:41:56.520Z,27.13
2019-04-16T10:42:54.835Z,27.13
2019-04-16T10:43:54.846Z,27.13
2019-04-16T10:44:54.839Z,27.50
2019-04-16T10:45:54.822Z,27.31
2019-04-16T10:46:54.801Z,26.93
2019-04-16T10:47:54.872Z,27.22
2019-04-16T10:48:54.819Z,27.04
2019-04-16T10:49:54.792Z,26.96
2019-04-16T10:50:54.787Z,26.86
2019-04-16T10:51:54.782Z,26.76
2019-04-16T10:52:56.115Z,26.29
2019-04-16T10:53:54.776Z,26.29
2019-04-16T10:54:54.783Z,25.90
2019-04-16T10:55:54.782Z,25.79
2019-04-16T10:56:57.883Z,25.78
2019-04-16T10:57:54.996Z,26.07
2019-04-16T10:58:54.922Z,26.27
2019-04-16T10:59:54.744Z,26.64
2019-04-16T11:00:54.756Z,27.03
2019-04-16T11:01:54.743Z,26.93
2019-04-16T11:02:54.746Z,26.93
2019-04-16T11:03:54.733Z,26.93
2019-04-16T11:04:54.721Z,26.93
2019-04-16T11:05:57.029Z,27.04
2019-04-16T11:06:54.739Z,26.95
2019-04-16T11:07:54.709Z,26.96
2019-04-16T11:08:54.706Z,26.49
2019-04-16T11:09:54.700Z,26.21
2019-04-16T11:10:54.697Z,26.21
2019-04-16T11:11:54.796Z,26.01
2019-04-16T11:12:54.706Z,25.93
2019-04-16T11:14:00.137Z,25.74
2019-04-16T11:14:54.680Z,25.36
2019-04-16T11:15:54.689Z,24.57
2019-04-16T11:16:54.679Z,24.37
2019-04-16T11:17:54.674Z,24.93
2019-04-16T11:18:55.132Z,24.73
2019-04-16T11:19:54.692Z,25.30
2019-04-16T11:20:54.670Z,25.78
2019-04-16T11:21:54.687Z,26.17
2019-04-16T11:22:54.686Z,25.96
2019-04-16T11:23:54.652Z,25.95
2019-04-16T11:24:54.652Z,26.43
2019-04-16T11:25:54.668Z,26.25
2019-04-16T11:26:54.637Z,25.85
2019-04-16T11:27:54.638Z,25.95
2019-04-16T11:28:54.628Z,25.96
2019-04-16T11:29:54.649Z,25.78
2019-04-16T11:30:54.640Z,25.78
2019-04-16T11:31:54.616Z,25.41
2019-04-16T11:32:54.617Z,25.02
2019-04-16T11:33:54.636Z,24.92
2019-04-16T11:34:54.621Z,24.92
2019-04-16T11:35:54.641Z,25.02
2019-04-16T11:36:54.598Z,24.83
2019-04-16T11:37:54.601Z,24.92
2019-04-16T11:38:54.614Z,25.41
2019-04-16T11:39:54.609Z,25.21
2019-04-16T11:40:54.584Z,25.42
2019-04-16T11:41:54.604Z,24.93
2019-04-16T11:42:54.594Z,24.85
2019-04-16T11:43:54.582Z,25.34
2019-04-16T11:44:54.582Z,24.77
2019-04-16T11:45:54.564Z,24.38
2019-04-16T11:46:54.583Z,24.78
2019-04-16T11:47:54.559Z,24.69
2019-04-16T11:48:54.564Z,24.41
2019-04-16T11:49:54.560Z,24.32
2019-04-16T11:50:54.548Z,23.73
2019-04-16T11:51:54.590Z,23.45
2019-04-16T11:52:57.235Z,23.63
2019-04-16T11:53:54.557Z,23.25
2019-04-16T11:54:54.552Z,23.44
2019-04-16T11:55:54.552Z,23.44
2019-04-16T11:56:55.555Z,23.65
2019-04-16T11:57:54.570Z,23.07
2019-04-16T11:58:57.278Z,22.86
2019-04-16T12:00:06.043Z,23.54
2019-04-16T12:00:54.601Z,23.83
2019-04-16T12:01:54.542Z,23.72
2019-04-16T12:02:54.524Z,23.82
2019-04-16T12:03:56.318Z,23.62
2019-04-16T12:04:58.845Z,23.82
2019-04-16T12:05:54.546Z,24.10
2019-04-16T12:06:54.518Z,23.90
2019-04-16T12:07:54.517Z,24.01
2019-04-16T12:08:54.516Z,23.73
2019-04-16T12:09:54.531Z,23.54
2019-04-16T12:10:54.509Z,23.45
2019-04-16T12:11:54.516Z,23.35
2019-04-16T12:12:54.506Z,23.45
2019-04-16T12:13:54.555Z,23.35
2019-04-16T12:14:54.541Z,22.77
2019-04-16T12:15:54.503Z,22.67
2019-04-16T12:16:54.504Z,22.86
2019-04-16T12:17:54.532Z,22.86
2019-04-16T12:18:54.502Z,23.35
2019-04-16T12:19:54.585Z,23.93
2019-04-16T12:20:54.523Z,23.83
2019-04-16T12:21:54.525Z,23.82
2019-04-16T12:22:54.527Z,23.43
2019-04-16T12:23:54.498Z,23.80
2019-04-16T12:24:54.538Z,23.42
2019-04-16T12:25:54.504Z,23.71
2019-04-16T12:26:54.499Z,23.42
2019-04-16T12:27:54.525Z,23.52
2019-04-16T12:28:54.508Z,23.61
2019-04-16T12:29:54.521Z,23.61
2019-04-16T12:30:54.614Z,23.52
2019-04-16T12:31:54.524Z,23.24
2019-04-16T12:32:54.534Z,22.94
2019-04-16T12:33:54.500Z,22.94
2019-04-16T12:34:54.531Z,22.74
2019-04-16T12:35:54.541Z,23.11
2019-04-16T12:36:54.536Z,23.41
2019-04-16T12:37:54.496Z,23.70
2019-04-16T12:38:54.520Z,23.79
2019-04-16T12:39:54.538Z,23.42
2019-04-16T12:40:54.489Z,22.93
2019-04-16T12:41:54.496Z,22.93
2019-04-16T12:42:54.521Z,23.52
2019-04-16T12:43:54.517Z,23.61
2019-04-16T12:44:54.491Z,23.32
2019-04-16T12:45:54.547Z,23.42
2019-04-16T12:46:54.625Z,22.93
2019-04-16T12:47:54.593Z,23.03
2019-04-16T12:48:54.495Z,22.83
2019-04-16T12:49:54.525Z,23.22
2019-04-16T12:50:54.498Z,23.61
2019-04-16T12:51:54.489Z,23.71